Time;durP1;ratioP1;P1;durP2;ratioP2;P2;SDS_P1;SDS_P2;PMS_P1;PMS_P2;Temp;Humidity;BMP_temperature;BMP_pressure;BME280_temperature;BME280_humidity;BME280_pressure;Samples;Min_cycle;Max_cycle;Signal;HPM_P1;HPM_P2
2022/05/24 00:02:02;;;;;;;2.42;0.10;;;24.40;47.40;;;;;;5105468;28;20092;-47
2022/05/24 00:04:29;;;;;;;0.63;0.20;;;24.40;47.50;;;;;;5101751;28;20046;-47
2022/05/24 00:06:56;;;;;;;2.15;0.10;;;24.40;47.50;;;;;;5100883;28;20040;-44
2022/05/24 00:09:23;;;;;;;3.28;0.20;;;24.40;47.70;;;;;;5099786;28;20148;-47
2022/05/24 00:11:51;;;;;;;1.48;0.10;;;24.40;47.70;;;;;;5101184;28;20203;-44
2022/05/24 00:15:19;;;;;;;1.65;0.00;;;24.40;47.50;;;;;;5106728;28;20113;-47
2022/05/24 00:17:07;;;;;;;4.22;0.50;;;24.30;47.30;;;;;;5107242;28;20494;-44
2022/05/24 00:19:35;;;;;;;0.77;0.17;;;24.20;47.50;;;;;;5107155;28;20136;-49
2022/05/24 00:22:02;;;;;;;0.20;0.10;;;24.20;47.60;;;;;;5107333;28;20126;-44
2022/05/24 00:24:29;;;;;;;3.30;0.10;;;24.10;46.70;;;;;;5107461;28;20050;-45
2022/05/24 00:26:56;;;;;;;5.05;0.20;;;24.10;46.90;;;;;;5109557;28;20587;-44
2022/05/24 00:29:23;;;;;;;1.30;0.63;;;24.00;47.00;;;;;;5107453;28;20119;-45
2022/05/24 00:31:50;;;;;;;5.88;0.10;;;24.00;46.90;;;;;;5107588;28;20587;-46
2022/05/24 00:34:18;;;;;;;1.48;0.10;;;23.90;47.20;;;;;;5107144;28;20544;-46
2022/05/24 00:36:46;;;;;;;2.95;0.55;;;23.90;47.30;;;;;;5100485;28;20516;-46
2022/05/24 00:39:13;;;;;;;1.95;0.00;;;23.90;47.20;;;;;;5104786;28;20522;-45
2022/05/24 00:41:44;;;;;;;0.55;0.10;;;23.80;47.30;;;;;;5105687;28;20120;-46
2022/05/24 00:44:18;;;;;;;0.15;0.00;;;23.80;47.60;;;;;;5106799;28;20152;-47
2022/05/24 00:46:56;;;;;;;0.80;0.10;;;23.70;47.10;;;;;;5106328;28;20104;-45
2022/05/24 00:49:28;;;;;;;1.23;0.08;;;23.70;47.90;;;;;;5106793;28;20039;-46
2022/05/24 00:51:59;;;;;;;0.30;0.08;;;23.70;48.10;;;;;;5106427;28;20035;-45
2022/05/24 00:54:26;;;;;;;7.65;0.47;;;23.80;48.20;;;;;;5104943;28;20140;-44
2022/05/24 00:56:57;;;;;;;0.40;0.10;;;23.90;48.30;;;;;;5109413;28;20113;-44
2022/05/24 01:02:14;;;;;;;1.63;0.30;;;24.00;48.30;;;;;;4477561;23;20571;-45
2022/05/24 01:04:43;;;;;;;3.10;0.28;;;24.10;48.40;;;;;;4969208;28;20103;-44
2022/05/24 01:07:10;;;;;;;1.25;0.35;;;24.20;48.40;;;;;;4968367;28;20413;-45
2022/05/24 01:09:44;;;;;;;0.85;0.35;;;24.20;48.50;;;;;;4971267;28;20074;-44
2022/05/24 01:12:16;;;;;;;0.20;0.20;;;24.30;48.50;;;;;;4966504;28;20042;-44
2022/05/24 01:14:43;;;;;;;0.30;0.30;;;24.40;48.50;;;;;;4970603;28;20039;-44
2022/05/24 01:17:10;;;;;;;1.13;0.00;;;24.40;48.40;;;;;;4968886;28;26921;-44
2022/05/24 01:19:42;;;;;;;2.17;0.10;;;24.40;48.40;;;;;;4969687;28;20161;-44
2022/05/24 01:22:38;;;;;;;1.95;0.30;;;24.50;48.50;;;;;;4949712;28;20410;-46
2022/05/24 01:25:09;;;;;;;0.63;0.00;;;24.50;48.40;;;;;;4967072;28;20050;-44
2022/05/24 01:27:38;;;;;;;0.30;0.05;;;24.50;48.40;;;;;;4970047;28;20078;-45
2022/05/24 01:30:08;;;;;;;0.80;0.00;;;24.60;48.50;;;;;;4963043;28;20490;-45
2022/05/24 01:38:08;;;;;;;2.13;0.03;;;24.70;49.10;;;;;;4968410;28;20046;-45
2022/05/24 01:40:38;;;;;;;1.85;0.08;;;24.70;48.50;;;;;;4952514;28;20314;-45
2022/05/24 01:43:07;;;;;;;0.43;0.00;;;24.70;48.50;;;;;;4969941;28;20118;-45
2022/05/24 01:45:40;;;;;;;0.10;0.00;;;24.70;48.50;;;;;;4967045;28;20690;-45
2022/05/24 01:48:12;;;;;;;1.05;0.20;;;24.80;48.60;;;;;;4969266;28;20063;-45
2022/05/24 01:50:41;;;;;;;0.45;0.30;;;24.80;48.60;;;;;;4963474;28;20043;-46
2022/05/24 01:53:14;;;;;;;1.33;0.00;;;24.90;48.70;;;;;;4966199;28;20043;-46
2022/05/24 01:55:45;;;;;;;0.03;0.00;;;24.90;48.60;;;;;;4969026;28;20059;-46
2022/05/24 01:58:17;;;;;;;1.00;0.00;;;24.90;48.60;;;;;;4969763;28;20047;-44
2022/05/24 02:00:49;;;;;;;1.25;0.00;;;24.90;48.60;;;;;;4967734;28;20106;-44
2022/05/24 02:03:18;;;;;;;0.63;0.10;;;24.90;48.60;;;;;;4967074;28;20034;-43
2022/05/24 02:05:52;;;;;;;0.47;0.10;;;25.00;49.20;;;;;;4967360;28;20035;-45
2022/05/24 02:08:20;;;;;;;0.13;0.00;;;25.00;48.70;;;;;;4969533;28;20057;-45
2022/05/24 02:10:52;;;;;;;0.85;0.55;;;25.00;48.70;;;;;;4969019;28;20047;-45
2022/05/24 02:13:25;;;;;;;1.60;0.00;;;25.00;48.80;;;;;;4968807;28;20478;-45
2022/05/24 02:15:57;;;;;;;0.08;0.00;;;25.00;48.90;;;;;;4969159;28;20113;-44
2022/05/24 02:18:25;;;;;;;0.10;0.00;;;25.10;49.00;;;;;;4967052;28;20065;-45
2022/05/24 02:20:52;;;;;;;0.35;0.10;;;25.00;49.00;;;;;;4968942;28;20042;-46
2022/05/24 02:23:20;;;;;;;1.45;0.10;;;25.00;49.10;;;;;;4967269;28;20043;-45
2022/05/24 02:25:50;;;;;;;1.15;0.05;;;25.10;49.20;;;;;;4971525;28;20063;-46
2022/05/24 02:28:20;;;;;;;1.02;0.00;;;25.10;49.30;;;;;;4973785;28;20050;-45
2022/05/24 02:30:50;;;;;;;0.10;0.00;;;25.10;49.40;;;;;;4972964;28;20106;-45
2022/05/24 02:33:20;;;;;;;0.52;0.00;;;25.10;49.40;;;;;;4973142;28;20038;-45
2022/05/24 02:35:47;;;;;;;1.35;0.20;;;25.10;49.40;;;;;;4971096;28;20083;-46
2022/05/24 02:38:14;;;;;;;0.00;0.00;;;25.10;49.50;;;;;;4972583;28;20034;-46
2022/05/24 02:43:33;;;;;;;0.52;0.00;;;25.10;49.50;;;;;;4970775;28;20170;-45
2022/05/24 02:46:00;;;;;;;0.35;0.00;;;25.20;49.60;;;;;;4971330;28;20594;-46
2022/05/24 02:48:28;;;;;;;0.57;0.10;;;25.10;49.60;;;;;;4972862;28;20077;-45
2022/05/24 02:50:55;;;;;;;4.03;0.10;;;25.10;49.50;;;;;;4971528;28;20076;-47
2022/05/24 02:53:22;;;;;;;0.20;0.20;;;25.10;49.50;;;;;;4971434;28;20039;-46
2022/05/24 02:55:49;;;;;;;0.10;0.00;;;25.10;49.50;;;;;;4953508;28;20165;-47
2022/05/24 02:58:16;;;;;;;0.50;0.10;;;25.20;49.60;;;;;;4972791;28;20046;-45
2022/05/24 03:00:45;;;;;;;0.50;0.00;;;25.20;49.50;;;;;;4969564;28;20451;-44
2022/05/24 03:03:12;;;;;;;0.55;0.08;;;25.10;49.40;;;;;;4970232;28;20039;-45
2022/05/24 03:05:39;;;;;;;0.20;0.00;;;25.20;49.40;;;;;;4970253;28;20057;-47
2022/05/24 03:10:51;;;;;;;0.32;0.10;;;25.20;49.40;;;;;;4968241;28;20058;-46
2022/05/24 03:16:10;;;;;;;0.10;0.00;;;25.20;49.50;;;;;;4970079;28;20157;-45
2022/05/24 03:18:37;;;;;;;0.10;0.00;;;25.20;49.50;;;;;;4965199;28;20043;-45
2022/05/24 03:21:04;;;;;;;0.47;0.03;;;25.20;49.40;;;;;;4963739;28;20038;-47
2022/05/24 03:23:31;;;;;;;0.45;0.00;;;25.20;49.40;;;;;;4963724;28;20054;-46
2022/05/24 03:25:59;;;;;;;0.95;0.00;;;25.20;49.40;;;;;;4969895;28;20406;-46
2022/05/24 03:28:26;;;;;;;0.45;0.15;;;25.20;49.40;;;;;;4971289;28;20047;-46
2022/05/24 03:30:54;;;;;;;0.20;0.00;;;25.20;49.30;;;;;;4969824;28;20047;-43
2022/05/24 03:33:22;;;;;;;1.00;0.00;;;25.20;49.30;;;;;;4969492;28;20050;-44
2022/05/24 03:35:49;;;;;;;0.10;0.00;;;25.20;49.30;;;;;;4969377;28;20057;-43
2022/05/24 03:38:16;;;;;;;1.95;0.10;;;25.20;49.30;;;;;;4970037;28;20070;-48
2022/05/24 03:40:43;;;;;;;0.15;0.00;;;25.20;49.20;;;;;;4971045;28;20038;-45
2022/05/24 03:43:12;;;;;;;0.10;0.10;;;25.20;49.20;;;;;;4969263;28;20050;-44
2022/05/24 03:45:39;;;;;;;0.63;0.10;;;25.20;49.20;;;;;;4969434;28;20582;-45
2022/05/24 03:48:07;;;;;;;0.00;0.00;;;25.20;49.20;;;;;;4969351;28;20042;-45
2022/05/24 03:50:36;;;;;;;0.13;0.00;;;25.20;49.10;;;;;;4969948;28;20049;-46
2022/05/24 03:53:03;;;;;;;0.40;0.00;;;25.20;49.70;;;;;;4969753;28;20061;-45
2022/05/24 03:55:30;;;;;;;0.10;0.00;;;25.20;49.20;;;;;;4970686;28;20047;-44
2022/05/24 03:58:02;;;;;;;0.00;0.00;;;25.20;49.20;;;;;;4969740;28;20051;-45
2022/05/24 04:00:32;;;;;;;0.30;0.00;;;25.10;49.10;;;;;;4964460;28;20045;-45
2022/05/24 04:03:00;;;;;;;0.10;0.00;;;25.20;49.10;;;;;;4964247;28;20129;-46
2022/05/24 04:05:27;;;;;;;0.20;0.10;;;25.20;49.10;;;;;;4965436;28;20121;-48
2022/05/24 04:07:56;;;;;;;0.30;0.10;;;25.20;49.00;;;;;;4970235;28;20066;-44
2022/05/24 04:10:23;;;;;;;0.00;0.00;;;25.10;48.90;;;;;;4971589;28;20043;-46
2022/05/24 04:12:51;;;;;;;0.00;0.00;;;25.20;49.00;;;;;;4969675;28;20049;-46
2022/05/24 04:15:19;;;;;;;0.28;0.28;;;25.20;49.00;;;;;;4967831;28;20062;-46
2022/05/24 04:17:47;;;;;;;0.30;0.30;;;25.20;49.00;;;;;;4971629;28;20596;-44
2022/05/24 04:20:16;;;;;;;0.25;0.00;;;25.10;48.90;;;;;;4969612;28;20425;-44
2022/05/24 04:22:44;;;;;;;0.10;0.00;;;25.20;48.90;;;;;;4970011;28;20145;-44
2022/05/24 04:25:13;;;;;;;0.20;0.13;;;25.20;48.90;;;;;;4969705;28;20122;-45
2022/05/24 04:27:42;;;;;;;0.00;0.00;;;25.10;48.80;;;;;;4967158;28;20046;-45
2022/05/24 04:30:12;;;;;;;0.10;0.00;;;25.20;48.90;;;;;;4965602;28;20038;-47
2022/05/24 04:32:39;;;;;;;0.73;0.00;;;25.10;48.80;;;;;;4967597;28;20384;-45
2022/05/24 04:35:07;;;;;;;0.10;0.00;;;25.10;48.80;;;;;;4968652;28;20138;-45
2022/05/24 04:37:34;;;;;;;2.00;0.13;;;25.10;48.80;;;;;;4967046;28;20098;-44
2022/05/24 04:40:01;;;;;;;1.77;0.45;;;25.10;48.80;;;;;;4970791;28;20163;-46
2022/05/24 04:42:28;;;;;;;0.60;0.00;;;25.10;48.80;;;;;;4970479;28;20518;-47
2022/05/24 04:44:58;;;;;;;0.63;0.00;;;25.10;48.80;;;;;;4944647;28;20137;-45
2022/05/24 04:47:28;;;;;;;0.00;0.00;;;25.20;48.90;;;;;;4951348;28;20047;-45
2022/05/24 04:49:57;;;;;;;0.22;0.05;;;25.20;49.50;;;;;;4965733;28;20695;-44
2022/05/24 04:52:28;;;;;;;0.30;0.00;;;25.20;48.80;;;;;;4968828;28;20039;-45
2022/05/24 04:54:56;;;;;;;0.30;0.30;;;25.20;48.80;;;;;;4960827;28;20689;-46
2022/05/24 04:57:24;;;;;;;9.52;0.10;;;25.20;48.80;;;;;;4965102;28;20037;-46
2022/05/24 04:59:53;;;;;;;0.98;0.10;;;25.20;48.70;;;;;;4971205;28;20402;-44
2022/05/24 05:02:21;;;;;;;0.57;0.00;;;25.20;48.70;;;;;;4972753;28;20078;-46
2022/05/24 05:04:49;;;;;;;1.27;0.00;;;25.20;48.70;;;;;;4969440;28;20058;-45
2022/05/24 05:07:19;;;;;;;2.08;0.00;;;25.20;48.70;;;;;;4968712;28;20043;-44
2022/05/24 05:09:47;;;;;;;0.40;0.00;;;25.20;48.70;;;;;;4967791;28;20050;-44
2022/05/24 05:12:15;;;;;;;0.05;0.00;;;25.20;48.60;;;;;;4967784;28;20047;-45
2022/05/24 05:14:43;;;;;;;0.65;0.00;;;25.20;48.60;;;;;;4968117;28;20158;-45
2022/05/24 05:17:13;;;;;;;1.75;0.22;;;25.20;48.60;;;;;;4958212;28;20549;-45
2022/05/24 05:19:40;;;;;;;0.80;0.00;;;25.20;48.60;;;;;;4969964;28;20047;-45
2022/05/24 05:22:08;;;;;;;1.17;0.00;;;25.20;48.50;;;;;;4967692;28;20074;-45
2022/05/24 05:24:35;;;;;;;0.10;0.00;;;25.20;48.50;;;;;;4968231;28;20396;-47
2022/05/24 05:27:03;;;;;;;0.00;0.00;;;25.20;48.50;;;;;;4968248;28;20447;-46
2022/05/24 05:32:22;;;;;;;0.17;0.00;;;25.20;48.40;;;;;;4967836;28;20053;-45
2022/05/24 05:34:50;;;;;;;0.20;0.00;;;25.30;48.50;;;;;;4967234;28;20042;-45
2022/05/24 05:37:17;;;;;;;1.65;0.00;;;25.20;48.40;;;;;;4968396;28;20078;-45
2022/05/24 05:39:53;;;;;;;0.15;0.15;;;25.20;48.30;;;;;;4967622;28;20423;-46
2022/05/24 05:42:21;;;;;;;1.15;0.00;;;25.20;48.30;;;;;;4967673;28;20296;-45
2022/05/24 05:44:49;;;;;;;0.10;0.00;;;25.20;48.30;;;;;;4967516;28;20121;-47
2022/05/24 05:47:17;;;;;;;1.45;0.00;;;25.20;48.20;;;;;;4967608;28;20120;-45
2022/05/24 05:49:46;;;;;;;2.65;0.00;;;25.20;48.20;;;;;;4972603;28;20068;-45
2022/05/24 05:52:16;;;;;;;1.27;0.00;;;25.20;48.20;;;;;;4967647;28;20042;-45
2022/05/24 05:54:43;;;;;;;0.98;0.00;;;25.20;48.10;;;;;;4967310;28;20101;-46
2022/05/24 05:57:11;;;;;;;0.88;0.22;;;25.20;48.10;;;;;;4967072;28;20484;-46
2022/05/24 05:59:38;;;;;;;0.38;0.00;;;25.30;48.10;;;;;;4966999;28;20419;-45
2022/05/24 06:02:05;;;;;;;0.08;0.08;;;25.30;48.10;;;;;;4967848;28;20065;-45
2022/05/24 06:04:33;;;;;;;0.10;0.10;;;25.30;48.10;;;;;;4969584;28;20503;-45
2022/05/24 06:07:02;;;;;;;0.52;0.22;;;25.30;48.10;;;;;;4969263;28;20049;-45
2022/05/24 06:09:29;;;;;;;3.25;0.03;;;25.30;48.00;;;;;;4969910;28;20086;-46
2022/05/24 06:11:59;;;;;;;0.00;0.00;;;25.30;47.90;;;;;;4969155;28;20507;-46
2022/05/24 06:14:27;;;;;;;0.47;0.00;;;25.30;47.90;;;;;;4969631;28;20050;-46
2022/05/24 06:16:54;;;;;;;3.03;1.00;;;25.30;47.80;;;;;;4967945;28;20058;-45
2022/05/24 06:19:21;;;;;;;1.48;0.08;;;25.30;47.70;;;;;;4970118;28;20054;-46
2022/05/24 06:21:49;;;;;;;0.08;0.00;;;25.30;47.70;;;;;;4949194;28;20165;-48
2022/05/24 06:24:17;;;;;;;1.38;0.00;;;25.30;47.60;;;;;;4969219;28;20082;-44
2022/05/24 06:26:46;;;;;;;0.00;0.00;;;25.30;47.60;;;;;;4967120;28;20534;-45
2022/05/24 06:29:13;;;;;;;0.00;0.00;;;25.30;47.60;;;;;;4968325;28;20133;-44
2022/05/24 06:31:44;;;;;;;0.00;0.00;;;25.30;47.50;;;;;;4968798;28;20422;-47
2022/05/24 06:34:11;;;;;;;0.00;0.00;;;25.30;48.10;;;;;;4966747;28;20050;-45
2022/05/24 06:36:39;;;;;;;0.38;0.13;;;25.40;47.60;;;;;;4966311;28;20074;-46
2022/05/24 06:39:06;;;;;;;3.65;0.00;;;25.30;47.60;;;;;;4949706;28;20051;-46
2022/05/24 06:41:35;;;;;;;1.55;0.00;;;25.40;47.60;;;;;;4967691;28;20038;-46
2022/05/24 06:44:02;;;;;;;1.55;0.00;;;25.40;47.50;;;;;;4967648;28;20053;-46
2022/05/24 06:46:31;;;;;;;1.05;0.10;;;25.40;47.50;;;;;;4967806;28;20038;-50
2022/05/24 06:48:58;;;;;;;0.03;0.00;;;25.40;47.40;;;;;;4966150;28;20395;-45
2022/05/24 06:51:25;;;;;;;0.17;0.00;;;25.40;47.40;;;;;;4979676;28;20575;-46
2022/05/24 06:53:52;;;;;;;1.92;0.10;;;25.40;47.40;;;;;;4967935;28;20043;-45
2022/05/24 06:56:20;;;;;;;0.17;0.00;;;25.40;47.40;;;;;;4969409;28;20103;-47
2022/05/24 06:58:48;;;;;;;1.08;0.00;;;25.40;47.30;;;;;;4968622;28;20046;-47
2022/05/24 07:04:02;;;;;;;0.17;0.00;;;25.40;47.30;;;;;;4947104;28;20043;-48
2022/05/24 07:06:29;;;;;;;2.25;0.50;;;25.50;47.30;;;;;;4933975;28;20451;-46
2022/05/24 07:08:57;;;;;;;2.38;0.80;;;25.50;47.20;;;;;;4947952;28;20163;-47
2022/05/24 07:11:25;;;;;;;0.10;0.00;;;25.50;47.20;;;;;;4954816;28;20565;-44
2022/05/24 07:13:54;;;;;;;0.82;0.13;;;25.50;47.10;;;;;;4954694;28;20051;-44
2022/05/24 07:16:21;;;;;;;0.93;0.00;;;25.50;47.10;;;;;;4955019;28;20051;-50
2022/05/24 07:18:48;;;;;;;0.68;0.00;;;25.50;47.10;;;;;;4934742;28;20519;-47
2022/05/24 07:21:16;;;;;;;6.93;0.57;;;25.50;46.30;;;;;;4943759;28;20066;-62
2022/05/24 07:23:43;;;;;;;7.35;0.10;;;25.50;46.20;;;;;;4946072;29;20571;-59
2022/05/24 07:26:14;;;;;;;3.15;0.10;;;25.60;46.90;;;;;;4945644;28;20150;-61
2022/05/24 07:28:42;;;;;;;4.10;1.05;;;25.70;47.20;;;;;;4949042;28;20049;-59
2022/05/24 07:31:10;;;;;;;5.85;0.25;;;25.90;46.60;;;;;;4945988;28;20139;-58
2022/05/24 07:33:37;;;;;;;3.78;0.05;;;26.00;46.40;;;;;;4928029;29;20763;-59
2022/05/24 07:36:05;;;;;;;2.60;0.08;;;26.20;46.10;;;;;;4945420;29;20134;-57
2022/05/24 07:38:33;;;;;;;1.50;0.03;;;26.30;45.70;;;;;;4928500;29;20054;-57
2022/05/24 07:46:32;;;;;;;1.55;0.10;;;26.70;45.00;;;;;;4947779;28;20138;-56
2022/05/24 07:49:00;;;;;;;0.10;0.10;;;26.80;44.80;;;;;;4944775;28;20795;-53
2022/05/24 07:51:27;;;;;;;2.40;0.00;;;26.90;44.60;;;;;;4945144;28;20074;-54
2022/05/24 07:53:54;;;;;;;0.10;0.00;;;27.00;44.40;;;;;;4948481;28;20062;-50
2022/05/24 07:56:23;;;;;;;2.05;0.40;;;27.10;44.30;;;;;;4945618;29;20484;-53
2022/05/24 07:58:51;;;;;;;2.17;0.03;;;27.20;44.10;;;;;;4946179;29;20051;-55
2022/05/24 08:01:19;;;;;;;11.68;0.30;;;27.30;43.80;;;;;;4933629;28;20058;-57
2022/05/24 08:03:47;;;;;;;8.80;0.10;;;27.40;43.40;;;;;;4963964;28;20043;-61
2022/05/24 08:06:15;;;;;;;2.45;0.10;;;27.50;43.40;;;;;;4964405;28;20149;-61
2022/05/24 08:08:42;;;;;;;3.50;0.30;;;27.60;43.20;;;;;;4963620;28;20073;-64
2022/05/24 08:11:10;;;;;;;5.20;0.10;;;27.70;43.10;;;;;;4961390;28;20969;-63
2022/05/24 08:13:38;;;;;;;3.40;0.10;;;27.80;42.90;;;;;;4966163;28;20202;-64
2022/05/24 08:16:06;;;;;;;0.50;0.10;;;27.90;42.80;;;;;;4964211;28;20449;-63
2022/05/24 08:18:33;;;;;;;1.77;0.10;;;28.00;42.60;;;;;;4949033;28;20559;-61
2022/05/24 08:21:02;;;;;;;1.00;0.10;;;28.10;42.50;;;;;;4960777;28;20290;-61
2022/05/24 08:23:30;;;;;;;1.77;0.00;;;28.20;42.30;;;;;;4964965;28;20047;-57
2022/05/24 08:25:57;;;;;;;3.05;0.00;;;28.20;42.40;;;;;;4964245;28;20586;-60
2022/05/24 08:28:25;;;;;;;2.13;0.00;;;28.30;42.30;;;;;;4965715;28;20125;-55
2022/05/24 08:30:54;;;;;;;3.00;0.30;;;28.40;42.30;;;;;;4940707;28;20074;-59
2022/05/24 08:33:23;;;;;;;1.13;0.05;;;28.40;42.10;;;;;;4964023;28;20043;-61
2022/05/24 08:35:52;;;;;;;2.30;0.20;;;28.50;42.00;;;;;;4963684;28;20058;-65
2022/05/24 08:38:23;;;;;;;2.00;0.10;;;28.50;41.80;;;;;;4959955;28;20486;-61
2022/05/24 08:40:52;;;;;;;1.60;0.10;;;28.60;41.60;;;;;;4962291;28;20159;-66
2022/05/24 08:43:41;;;;;;;0.70;0.20;;;28.60;41.50;;;;;;4962325;28;20834;-70
2022/05/24 08:49:03;;;;;;;1.90;0.15;;;28.70;41.30;;;;;;4963800;28;20076;-66
2022/05/24 08:51:36;;;;;;;1.75;0.20;;;28.70;41.20;;;;;;4961999;28;20055;-66
2022/05/24 08:54:09;;;;;;;0.35;0.10;;;28.80;41.10;;;;;;4965261;28;20046;-62
2022/05/24 08:56:44;;;;;;;0.75;0.20;;;28.80;41.10;;;;;;4965242;28;20114;-61
2022/05/24 08:59:18;;;;;;;0.22;0.00;;;28.90;41.10;;;;;;4946960;28;20042;-61
2022/05/24 09:01:47;;;;;;;1.55;0.10;;;28.90;41.10;;;;;;4961855;28;20878;-62
2022/05/24 09:04:14;;;;;;;0.30;0.00;;;28.90;41.10;;;;;;4963631;28;20057;-62
2022/05/24 09:06:48;;;;;;;0.90;0.00;;;28.90;41.10;;;;;;4963244;28;20047;-62
2022/05/24 09:09:31;;;;;;;1.17;0.45;;;29.00;41.10;;;;;;4962267;28;20047;-61
2022/05/24 09:12:13;;;;;;;0.40;0.20;;;29.00;41.00;;;;;;4960012;28;20046;-65
2022/05/24 09:14:50;;;;;;;0.40;0.00;;;29.10;41.00;;;;;;4944464;28;20059;-60
2022/05/24 09:17:33;;;;;;;1.17;0.00;;;29.10;40.90;;;;;;4963052;28;20045;-67
2022/05/24 09:20:00;;;;;;;0.63;0.10;;;29.10;40.80;;;;;;4944533;28;20063;-60
2022/05/24 09:22:33;;;;;;;3.20;0.08;;;29.10;40.80;;;;;;4961260;28;20054;-60
2022/05/24 09:25:01;;;;;;;3.15;0.10;;;29.20;40.80;;;;;;4963599;28;20050;-61
2022/05/24 09:27:31;;;;;;;0.85;0.10;;;29.20;40.70;;;;;;4962767;28;20042;-60
2022/05/24 09:30:02;;;;;;;0.50;0.08;;;29.20;40.60;;;;;;4962113;28;20089;-51
2022/05/24 09:32:38;;;;;;;0.10;0.10;;;29.20;40.40;;;;;;4960031;28;20177;-55
2022/05/24 09:35:22;;;;;;;0.88;0.00;;;29.30;40.20;;;;;;4960223;28;20050;-54
2022/05/24 09:38:08;;;;;;;0.03;0.00;;;29.30;40.00;;;;;;4961875;28;20394;-49
2022/05/24 09:40:46;;;;;;;;;;;29.50;39.90;;;;;;4957582;28;20066;-53
2022/05/24 09:43:23;;;;;;;3.13;0.00;;;29.50;39.90;;;;;;4958595;28;19938;-56
2022/05/24 09:45:56;;;;;;;1.23;0.10;;;29.50;39.60;;;;;;4961062;28;20134;-55
2022/05/24 09:48:26;;;;;;;3.70;0.10;;;29.60;39.40;;;;;;4956451;28;20050;-42
2022/05/24 09:50:54;;;;;;;1.95;0.00;;;29.60;39.40;;;;;;4955987;28;20459;-43
2022/05/24 09:53:26;;;;;;;0.65;0.00;;;29.60;39.00;;;;;;4956613;28;20088;-43
2022/05/24 09:55:59;;;;;;;9.18;0.10;;;29.60;38.80;;;;;;4959517;28;20636;-53
2022/05/24 09:58:33;;;;;;;0.65;0.00;;;29.60;39.00;;;;;;4953914;28;20061;-47
2022/05/24 10:01:03;;;;;;;7.97;0.63;;;29.60;39.10;;;;;;4963733;28;20059;-44
2022/05/24 10:03:34;;;;;;;3.95;0.10;;;29.60;39.60;;;;;;4965030;28;20538;-44
2022/05/24 10:06:09;;;;;;;5.35;0.10;;;29.50;39.90;;;;;;4966724;28;20031;-45
2022/05/24 10:08:39;;;;;;;10.55;0.20;;;29.20;40.10;;;;;;4966483;28;20051;-44
2022/05/24 10:11:18;;;;;;;2.90;0.10;;;29.00;40.40;;;;;;4967188;28;20889;-45
2022/05/24 10:13:55;;;;;;;3.08;0.10;;;28.80;40.70;;;;;;4968780;28;20577;-44
2022/05/24 10:16:31;;;;;;;1.88;0.10;;;28.60;40.70;;;;;;4968063;28;20050;-45
2022/05/24 10:19:25;;;;;;;0.60;0.10;;;28.50;41.10;;;;;;4967382;28;20042;-45
2022/05/24 10:22:02;;;;;;;10.65;0.10;;;28.40;41.30;;;;;;4964720;28;20560;-46
2022/05/24 10:24:40;;;;;;;0.30;0.20;;;28.20;41.50;;;;;;4968080;28;20126;-45
2022/05/24 10:27:21;;;;;;;2.00;0.20;;;28.10;41.60;;;;;;4967419;28;20043;-45
2022/05/24 10:30:00;;;;;;;0.20;0.10;;;28.00;41.60;;;;;;4945177;28;20047;-46
2022/05/24 10:38:50;;;;;;;0.32;0.30;;;27.80;41.70;;;;;;4964260;28;20043;-45
2022/05/24 10:41:25;;;;;;;1.08;0.00;;;27.80;41.80;;;;;;4887787;29;20060;-47
2022/05/24 10:44:01;;;;;;;2.95;0.00;;;27.80;41.80;;;;;;4907823;29;20594;-45
2022/05/24 10:46:39;;;;;;;2.00;0.08;;;27.70;41.70;;;;;;4910567;29;20044;-44
2022/05/24 10:49:17;;;;;;;0.40;0.10;;;27.80;42.00;;;;;;4911042;29;20056;-44
2022/05/24 10:51:49;;;;;;;3.83;0.00;;;27.70;41.90;;;;;;4910692;29;20076;-44
2022/05/24 10:54:28;;;;;;;0.25;0.00;;;27.70;42.00;;;;;;4910644;29;20048;-45
2022/05/24 10:57:00;;;;;;;1.98;0.00;;;27.60;42.00;;;;;;4904759;29;20146;-44
2022/05/24 10:59:41;;;;;;;1.50;0.10;;;27.60;42.00;;;;;;4910365;29;20048;-44
2022/05/24 11:02:16;;;;;;;0.80;0.00;;;27.50;42.60;;;;;;4910220;29;20528;-44
2022/05/24 11:04:49;;;;;;;0.47;0.20;;;27.50;42.10;;;;;;4912015;29;20517;-45
2022/05/24 11:07:19;;;;;;;0.17;0.00;;;27.50;42.10;;;;;;4909103;29;20063;-46
2022/05/24 11:09:54;;;;;;;1.65;0.00;;;27.50;42.20;;;;;;4910474;29;20560;-44
2022/05/24 11:12:27;;;;;;;1.45;0.00;;;27.50;42.10;;;;;;4910263;29;20075;-43
2022/05/24 11:15:02;;;;;;;0.43;0.00;;;27.40;42.00;;;;;;4903655;29;20190;-44
2022/05/24 11:17:29;;;;;;;0.10;0.00;;;27.40;41.90;;;;;;4913494;28;20142;-45
2022/05/24 11:19:57;;;;;;;0.40;0.00;;;27.40;42.00;;;;;;4970864;28;20043;-46
2022/05/24 11:22:30;;;;;;;0.88;0.00;;;27.50;42.10;;;;;;4970580;28;20049;-44
2022/05/24 11:25:03;;;;;;;0.10;0.00;;;27.40;42.00;;;;;;4969703;28;20039;-46
2022/05/24 11:27:34;;;;;;;0.08;0.00;;;27.40;42.00;;;;;;4970006;28;20038;-44
2022/05/24 11:30:10;;;;;;;0.85;0.00;;;27.40;42.10;;;;;;4970353;28;20051;-44
2022/05/24 11:32:41;;;;;;;0.43;0.05;;;27.40;42.10;;;;;;4970145;28;20521;-44
2022/05/24 11:35:12;;;;;;;0.45;0.00;;;27.40;42.20;;;;;;4970013;28;20043;-46
2022/05/24 11:37:42;;;;;;;2.20;0.15;;;27.30;42.00;;;;;;4974441;28;20057;-44
2022/05/24 11:40:34;;;;;;;3.72;0.00;;;27.30;42.00;;;;;;4969441;28;20034;-44
2022/05/24 11:43:03;;;;;;;0.57;0.00;;;27.40;42.10;;;;;;4952425;28;20066;-44
2022/05/24 11:46:00;;;;;;;1.30;0.00;;;27.40;42.20;;;;;;4969811;28;20471;-44
2022/05/24 11:48:46;;;;;;;0.00;0.00;;;27.40;42.10;;;;;;4969781;28;20055;-45
2022/05/24 11:51:39;;;;;;;0.17;0.00;;;27.40;42.10;;;;;;4964462;28;20102;-46
2022/05/24 11:54:09;;;;;;;0.77;0.10;;;27.40;41.90;;;;;;4968987;28;20310;-43
2022/05/24 11:56:38;;;;;;;0.10;0.00;;;27.40;41.80;;;;;;4969287;28;20503;-45
2022/05/24 11:59:07;;;;;;;0.00;0.00;;;27.40;41.80;;;;;;4969821;28;20042;-45
2022/05/24 12:01:59;;;;;;;0.00;0.00;;;27.40;41.80;;;;;;4969798;28;20558;-44
2022/05/24 12:10:36;;;;;;;0.10;0.00;;;27.40;41.70;;;;;;4969764;28;20585;-42
2022/05/24 12:13:38;;;;;;;0.98;0.00;;;27.30;41.70;;;;;;4969453;28;20589;-44
2022/05/24 12:16:28;;;;;;;0.05;0.00;;;27.30;41.70;;;;;;4969849;28;20047;-44
2022/05/24 12:19:00;;;;;;;1.23;0.15;;;27.30;41.70;;;;;;4969086;28;20054;-44
2022/05/24 12:22:07;;;;;;;0.50;0.00;;;27.30;41.80;;;;;;4969185;28;20045;-44
2022/05/24 12:24:49;;;;;;;0.00;0.00;;;27.30;41.70;;;;;;4967810;28;20046;-44
2022/05/24 12:27:20;;;;;;;0.65;0.20;;;27.20;41.60;;;;;;4962706;28;20089;-44
2022/05/24 12:29:50;;;;;;;0.82;0.00;;;27.30;41.70;;;;;;4968907;28;20043;-45
2022/05/24 12:32:20;;;;;;;0.32;0.00;;;27.30;41.70;;;;;;4968931;28;20602;-45
2022/05/24 12:34:49;;;;;;;0.80;0.00;;;27.30;41.70;;;;;;4970717;28;20150;-45
2022/05/24 12:37:24;;;;;;;1.15;0.28;;;27.30;41.70;;;;;;4967281;28;20098;-44
2022/05/24 12:40:14;;;;;;;0.47;0.00;;;27.30;41.70;;;;;;4968770;28;20050;-45
2022/05/24 12:42:46;;;;;;;0.82;0.00;;;27.40;41.60;;;;;;4968867;28;20141;-44
2022/05/24 12:45:16;;;;;;;0.00;0.00;;;27.40;41.60;;;;;;4968714;28;20149;-45
2022/05/24 12:47:50;;;;;;;0.10;0.00;;;27.40;41.40;;;;;;4968653;28;20039;-44
2022/05/24 12:50:31;;;;;;;0.03;0.00;;;27.40;41.40;;;;;;4968181;28;20113;-47
2022/05/24 12:53:05;;;;;;;0.05;0.00;;;27.50;41.30;;;;;;4965470;28;20050;-45
2022/05/24 12:58:31;;;;;;;0.08;0.08;;;27.50;41.20;;;;;;4969003;28;20049;-44
2022/05/24 13:01:13;;;;;;;2.40;0.00;;;27.60;41.20;;;;;;4965806;28;20050;-45
2022/05/24 13:04:00;;;;;;;0.20;0.05;;;27.60;41.10;;;;;;4967953;28;20047;-45
2022/05/24 13:06:42;;;;;;;0.10;0.00;;;27.60;41.10;;;;;;4975457;28;20043;-46
2022/05/24 13:09:17;;;;;;;0.00;0.00;;;27.60;41.10;;;;;;4961101;28;20062;-46
2022/05/24 13:11:46;;;;;;;0.55;0.55;;;27.70;41.10;;;;;;4962638;28;20053;-45
2022/05/24 13:14:32;;;;;;;0.05;0.05;;;27.70;41.00;;;;;;4968258;28;20165;-46
2022/05/24 13:17:00;;;;;;;0.10;0.10;;;27.80;41.00;;;;;;4968457;28;20047;-44
2022/05/24 13:19:27;;;;;;;0.73;0.00;;;27.80;41.00;;;;;;4969267;28;20050;-44
2022/05/24 13:21:56;;;;;;;1.02;0.25;;;27.80;40.90;;;;;;4967786;28;20062;-45
2022/05/24 13:24:23;;;;;;;0.10;0.00;;;27.90;40.90;;;;;;4967567;28;20103;-43
2022/05/24 13:27:02;;;;;;;0.13;0.08;;;27.90;40.90;;;;;;4967921;28;20121;-43
2022/05/24 13:33:32;;;;;;;0.43;0.00;;;27.90;40.80;;;;;;4966841;28;20043;-43
2022/05/24 13:35:18;;;;;;;1.45;0.00;;;28.00;40.80;;;;;;4925937;29;20071;-43
2022/05/24 13:37:50;;;;;;;0.57;0.00;;;28.00;40.80;;;;;;4928343;29;20871;-44
2022/05/24 13:40:18;;;;;;;0.20;0.00;;;28.10;40.80;;;;;;4926894;29;20131;-44
2022/05/24 13:42:54;;;;;;;0.35;0.00;;;28.10;40.70;;;;;;4926367;29;20056;-44
2022/05/24 13:45:23;;;;;;;0.35;0.25;;;28.20;40.70;;;;;;4920981;29;20051;-44
2022/05/24 13:47:54;;;;;;;0.00;0.00;;;28.20;40.60;;;;;;4926812;29;20059;-43
2022/05/24 13:50:28;;;;;;;0.13;0.00;;;28.20;40.60;;;;;;4926264;29;20115;-43
2022/05/24 13:53:00;;;;;;;0.40;0.00;;;28.20;40.50;;;;;;4924135;29;20051;-44
2022/05/24 13:55:29;;;;;;;0.00;0.00;;;28.20;40.50;;;;;;4927417;29;20052;-43
2022/05/24 13:58:00;;;;;;;0.10;0.00;;;28.30;40.40;;;;;;4926345;29;20055;-44